createdAt,value
2019-01-14T00:00:29.690Z,72.01
2019-01-14T00:03:09.708Z,73.21
2019-01-14T00:05:49.889Z,73.05
2019-01-14T00:08:25.480Z,73.05
2019-01-14T00:11:01.041Z,72.55
2019-01-14T00:13:35.299Z,72.01
2019-01-14T00:16:13.593Z,71.48
2019-01-14T00:18:48.909Z,71.66
2019-01-14T00:21:25.059Z,72.05
2019-01-14T00:24:00.192Z,71.88
2019-01-14T00:27:09.744Z,71.98
2019-01-14T00:29:51.599Z,71.76
2019-01-14T00:32:25.973Z,71.66
2019-01-14T00:35:03.782Z,72.23
2019-01-14T00:37:38.424Z,72.87
2019-01-14T00:40:14.729Z,71.92
2019-01-14T00:42:49.308Z,70.67
2019-01-14T00:45:26.986Z,70.73
2019-01-14T00:48:01.459Z,70.66
2019-01-14T00:50:37.677Z,70.42
2019-01-14T00:53:14.769Z,70.00
2019-01-14T00:55:50.811Z,69.82
2019-01-14T00:58:29.948Z,70.23
2019-01-14T01:01:27.248Z,69.89
2019-01-14T01:04:01.139Z,69.66
2019-01-14T01:06:38.081Z,69.25
2019-01-14T01:09:19.974Z,68.97
2019-01-14T01:12:00.438Z,69.39
2019-01-14T01:14:53.918Z,69.42
2019-01-14T01:17:28.280Z,69.16
2019-01-14T01:20:03.007Z,68.95
2019-01-14T01:22:42.454Z,68.53
2019-01-14T01:25:19.454Z,68.80
2019-01-14T01:27:56.471Z,68.56
2019-01-14T01:30:32.036Z,68.06
2019-01-14T01:33:23.023Z,67.91
2019-01-14T01:36:01.132Z,68.49
2019-01-14T01:38:38.057Z,68.48
2019-01-14T01:41:22.456Z,68.87
2019-01-14T01:43:58.092Z,68.55
2019-01-14T01:46:39.235Z,67.46
2019-01-14T01:49:16.764Z,66.86
2019-01-14T01:51:52.724Z,67.27
2019-01-14T01:54:28.065Z,68.44
2019-01-14T01:57:03.153Z,68.38
2019-01-14T01:59:41.115Z,67.77
2019-01-14T02:02:17.774Z,67.25
2019-01-14T02:05:02.052Z,66.86
2019-01-14T02:07:41.269Z,67.23
2019-01-14T02:10:21.280Z,65.78
2019-01-14T02:13:04.244Z,65.92
2019-01-14T02:15:46.973Z,66.66
2019-01-14T02:18:22.677Z,65.53
2019-01-14T02:20:56.804Z,65.01
2019-01-14T02:23:31.584Z,65.74
2019-01-14T02:26:08.203Z,64.90
2019-01-14T02:28:44.542Z,64.71
2019-01-14T02:31:19.345Z,64.49
2019-01-14T02:33:56.181Z,64.21
2019-01-14T02:36:30.569Z,64.23
2019-01-14T02:39:04.758Z,63.76
2019-01-14T02:41:38.753Z,63.98
2019-01-14T02:44:13.400Z,63.26
2019-01-14T02:46:58.744Z,63.58
2019-01-14T02:49:33.737Z,62.82
2019-01-14T02:52:07.523Z,62.53
2019-01-14T02:54:42.243Z,62.75
2019-01-14T02:57:16.184Z,62.55
2019-01-14T02:59:49.798Z,62.69
2019-01-14T03:02:23.916Z,62.41
2019-01-14T03:04:58.646Z,61.78
2019-01-14T03:07:37.238Z,61.56
2019-01-14T03:10:11.830Z,61.98
2019-01-14T03:12:46.205Z,60.92
2019-01-14T03:15:20.399Z,61.34
2019-01-14T03:17:54.194Z,60.43
2019-01-14T03:20:27.800Z,60.05
2019-01-14T03:23:01.290Z,60.00
2019-01-14T03:25:34.890Z,63.22
2019-01-14T03:28:08.500Z,58.92
2019-01-14T03:30:50.946Z,58.21
2019-01-14T03:33:22.947Z,57.29
2019-01-14T03:35:56.561Z,57.34
2019-01-14T03:38:31.394Z,57.06
2019-01-14T03:41:07.734Z,56.37
2019-01-14T03:43:43.081Z,55.61
2019-01-14T03:46:17.351Z,55.88
2019-01-14T03:48:52.264Z,56.16
2019-01-14T03:51:25.847Z,55.83
2019-01-14T03:54:00.591Z,56.00
2019-01-14T03:56:34.359Z,56.72
2019-01-14T03:59:08.022Z,56.64
2019-01-14T04:01:41.753Z,56.13
2019-01-14T04:04:15.583Z,56.93
2019-01-14T04:06:49.667Z,57.10
2019-01-14T04:09:24.649Z,56.14
2019-01-14T04:11:58.396Z,55.24
2019-01-14T04:14:32.033Z,55.20
2019-01-14T04:17:05.733Z,55.30
2019-01-14T04:19:40.416Z,54.96
2019-01-14T04:22:14.184Z,55.13
2019-01-14T04:24:47.789Z,55.03
2019-01-14T04:27:22.716Z,53.95
2019-01-14T04:29:56.561Z,53.90
2019-01-14T04:32:30.002Z,52.88
2019-01-14T04:35:03.341Z,53.01
2019-01-14T04:37:39.735Z,52.97
2019-01-14T04:40:15.549Z,52.69
2019-01-14T04:42:49.942Z,52.39
2019-01-14T04:45:24.426Z,53.06
2019-01-14T04:47:58.336Z,52.79
2019-01-14T04:50:34.631Z,52.29
2019-01-14T04:53:09.087Z,52.42
2019-01-14T04:55:44.011Z,51.74
2019-01-14T04:58:17.834Z,52.15
2019-01-14T05:00:51.592Z,52.15
2019-01-14T05:03:29.068Z,51.18
2019-01-14T05:06:02.747Z,51.01
2019-01-14T05:08:37.703Z,51.21
2019-01-14T05:11:11.966Z,50.70
2019-01-14T05:13:45.733Z,50.42
2019-01-14T05:16:19.788Z,50.24
2019-01-14T05:18:53.502Z,50.08
2019-01-14T05:21:27.283Z,50.17
2019-01-14T05:24:03.266Z,49.20
2019-01-14T05:26:38.147Z,48.53
2019-01-14T05:29:12.164Z,48.82
2019-01-14T05:31:48.783Z,48.30
2019-01-14T05:34:22.530Z,48.30
2019-01-14T05:36:56.086Z,48.40
2019-01-14T05:39:30.725Z,48.23
2019-01-14T05:42:10.001Z,47.80
2019-01-14T05:44:44.697Z,48.52
2019-01-14T05:47:20.878Z,46.22
2019-01-14T05:49:56.004Z,45.00
2019-01-14T05:52:30.756Z,43.83
2019-01-14T05:55:04.290Z,43.20
2019-01-14T05:57:37.876Z,42.33
2019-01-14T06:00:32.518Z,41.83
2019-01-14T06:03:07.142Z,42.31
2019-01-14T06:05:41.258Z,42.82
2019-01-14T06:08:15.034Z,41.47
2019-01-14T06:10:48.673Z,43.11
2019-01-14T06:13:22.570Z,43.01
2019-01-14T06:15:56.258Z,42.18
2019-01-14T06:18:30.105Z,43.62
2019-01-14T06:21:06.987Z,41.83
2019-01-14T06:23:49.286Z,42.80
2019-01-14T06:26:23.178Z,42.15
2019-01-14T06:28:57.206Z,42.71
2019-01-14T06:31:30.714Z,42.71
2019-01-14T06:34:04.701Z,43.33
2019-01-14T06:36:38.385Z,42.60
2019-01-14T06:39:13.199Z,42.31
2019-01-14T06:41:47.850Z,43.63
2019-01-14T06:44:21.871Z,43.46
2019-01-14T06:46:59.631Z,43.53
2019-01-14T06:49:34.169Z,43.01
2019-01-14T06:52:08.923Z,42.71
2019-01-14T06:54:44.011Z,44.22
2019-01-14T06:57:18.482Z,43.56
2019-01-14T06:59:52.229Z,44.14
2019-01-14T07:02:26.099Z,43.63
2019-01-14T07:04:59.811Z,43.26
2019-01-14T07:07:33.550Z,44.11
2019-01-14T07:10:08.590Z,43.50
2019-01-14T07:12:42.100Z,44.78
2019-01-14T07:15:16.908Z,43.85
2019-01-14T07:17:50.749Z,43.35
2019-01-14T07:20:25.803Z,43.61
2019-01-14T07:23:00.454Z,44.65
2019-01-14T07:25:34.791Z,45.87
2019-01-14T07:28:09.008Z,45.43
2019-01-14T07:30:43.181Z,44.26
2019-01-14T07:33:17.334Z,44.50
2019-01-14T07:35:51.611Z,45.57
2019-01-14T07:38:27.257Z,45.71
2019-01-14T07:41:01.156Z,44.78
2019-01-14T07:43:35.823Z,45.51
2019-01-14T07:46:09.920Z,46.09
2019-01-14T07:48:43.991Z,46.40
2019-01-14T07:51:17.862Z,47.03
2019-01-14T07:53:55.787Z,46.00
2019-01-14T07:56:29.540Z,47.07
2019-01-14T07:59:03.170Z,47.42
2019-01-14T08:01:37.440Z,47.48
2019-01-14T08:04:11.305Z,47.89
2019-01-14T08:06:44.762Z,46.54
2019-01-14T08:09:20.127Z,47.35
2019-01-14T08:11:53.741Z,46.82
2019-01-14T08:14:27.235Z,45.48
2019-01-14T08:17:01.030Z,45.58
2019-01-14T08:19:34.706Z,46.12
2019-01-14T08:22:08.436Z,46.21
2019-01-14T08:24:42.480Z,46.31
2019-01-14T08:27:17.115Z,46.27
2019-01-14T08:29:50.877Z,46.51
2019-01-14T08:32:26.025Z,46.78
2019-01-14T08:34:59.876Z,45.98
2019-01-14T08:37:35.807Z,45.80
2019-01-14T08:40:13.210Z,46.94
2019-01-14T08:42:48.090Z,47.80
2019-01-14T08:45:24.796Z,47.86
2019-01-14T08:47:58.683Z,48.05
2019-01-14T08:50:33.102Z,48.40
2019-01-14T08:53:07.732Z,49.54
2019-01-14T08:55:41.414Z,49.00
2019-01-14T08:58:15.416Z,49.12
2019-01-14T09:00:49.061Z,48.80
2019-01-14T09:03:23.197Z,49.77
2019-01-14T09:05:57.623Z,49.44
2019-01-14T09:08:31.260Z,48.42
2019-01-14T09:11:05.986Z,49.32
2019-01-14T09:13:43.514Z,48.80
2019-01-14T09:16:17.559Z,48.89
2019-01-14T09:18:53.273Z,49.06
2019-01-14T09:21:28.400Z,48.68
2019-01-14T09:24:02.755Z,48.83
2019-01-14T09:26:39.034Z,47.30
2019-01-14T09:29:15.328Z,48.38
2019-01-14T09:31:52.968Z,48.38
2019-01-14T09:34:27.762Z,48.45
2019-01-14T09:37:03.612Z,49.05
2019-01-14T09:39:38.174Z,48.98
2019-01-14T09:42:16.726Z,48.64
2019-01-14T09:44:51.272Z,49.21
2019-01-14T09:47:28.126Z,49.69
2019-01-14T09:50:02.675Z,50.42
2019-01-14T09:52:37.324Z,49.96
2019-01-14T09:55:13.799Z,48.69
2019-01-14T09:57:50.952Z,49.49
2019-01-14T10:00:28.227Z,49.88
2019-01-14T10:03:04.385Z,49.92
2019-01-14T10:05:39.304Z,49.74
2019-01-14T10:08:14.238Z,50.67
2019-01-14T10:10:49.772Z,50.62
2019-01-14T10:13:24.367Z,50.43
2019-01-14T10:15:59.424Z,50.54
2019-01-14T10:18:33.745Z,50.89
2019-01-14T10:21:08.497Z,51.62
2019-01-14T10:23:44.345Z,51.20
2019-01-14T10:26:19.327Z,50.39
2019-01-14T10:28:54.700Z,50.92
2019-01-14T10:31:29.295Z,49.55
2019-01-14T10:34:04.067Z,48.59
2019-01-14T10:36:38.739Z,49.20
2019-01-14T10:39:17.578Z,49.08
2019-01-14T10:41:52.202Z,48.25
2019-01-14T10:44:27.108Z,46.96
2019-01-14T10:47:02.686Z,47.49
2019-01-14T10:49:38.224Z,46.86
2019-01-14T10:52:12.854Z,46.83
2019-01-14T10:54:48.564Z,47.64
2019-01-14T10:57:23.179Z,47.12
2019-01-14T10:59:59.318Z,47.21
2019-01-14T11:02:33.761Z,46.90
2019-01-14T11:05:10.049Z,46.98
2019-01-14T11:07:45.578Z,47.27
2019-01-14T11:10:20.906Z,46.66
2019-01-14T11:12:56.106Z,47.42
2019-01-14T11:15:30.062Z,46.95
2019-01-14T11:18:07.073Z,47.17
2019-01-14T11:20:43.542Z,46.63
2019-01-14T11:23:18.786Z,46.32
2019-01-14T11:25:52.839Z,46.25
2019-01-14T11:28:30.303Z,46.34
2019-01-14T11:31:06.381Z,47.18
2019-01-14T11:33:41.971Z,46.65
2019-01-14T11:36:16.976Z,46.92
2019-01-14T11:38:52.991Z,47.46
2019-01-14T11:41:30.271Z,47.45
2019-01-14T11:44:05.635Z,47.83
2019-01-14T11:46:40.068Z,48.32
2019-01-14T11:49:17.014Z,48.79
2019-01-14T11:51:52.952Z,48.92
2019-01-14T11:54:30.249Z,48.98
2019-01-14T11:57:08.840Z,49.06
2019-01-14T11:59:44.046Z,49.20
2019-01-14T12:02:18.919Z,48.53
2019-01-14T12:04:54.946Z,47.43
2019-01-14T12:07:31.199Z,47.70
2019-01-14T12:10:07.388Z,47.29
2019-01-14T12:12:43.094Z,46.76
2019-01-14T12:15:23.510Z,46.61
2019-01-14T12:18:00.128Z,46.14
2019-01-14T12:20:35.345Z,46.66
2019-01-14T12:23:10.773Z,46.21
2019-01-14T12:25:45.759Z,46.38
2019-01-14T12:28:20.929Z,46.25
2019-01-14T12:30:55.754Z,46.67
2019-01-14T12:33:31.005Z,47.44
2019-01-14T12:36:08.368Z,47.88
2019-01-14T12:38:43.232Z,46.94
2019-01-14T12:41:19.108Z,47.03
2019-01-14T12:43:54.406Z,46.78
2019-01-14T12:46:32.052Z,46.77
2019-01-14T12:49:10.923Z,47.41
2019-01-14T12:51:46.190Z,47.75
2019-01-14T12:54:21.660Z,48.25
2019-01-14T12:56:56.677Z,49.20
2019-01-14T12:59:34.873Z,50.10
2019-01-14T13:02:11.251Z,49.98
2019-01-14T13:04:49.174Z,50.07
2019-01-14T13:07:24.374Z,52.25
2019-01-14T13:10:16.339Z,53.27
2019-01-14T13:12:51.835Z,52.63
2019-01-14T13:15:30.292Z,52.12
2019-01-14T13:18:06.750Z,52.57
2019-01-14T13:20:43.604Z,52.69
2019-01-14T13:23:25.679Z,52.77
2019-01-14T13:26:01.469Z,53.93
2019-01-14T13:31:33.950Z,53.80
2019-01-14T13:34:11.617Z,53.95
2019-01-14T13:36:46.366Z,53.49
2019-01-14T13:39:21.548Z,51.40
2019-01-14T13:41:56.805Z,51.55
2019-01-14T13:44:31.855Z,51.32
2019-01-14T13:47:07.488Z,53.08
2019-01-14T13:49:42.380Z,56.31
2019-01-14T13:52:18.362Z,57.35
2019-01-14T13:54:53.180Z,57.47
2019-01-14T13:57:27.727Z,59.09
2019-01-14T14:00:02.094Z,59.32
2019-01-14T14:02:40.244Z,59.87
2019-01-14T14:05:17.912Z,60.27
2019-01-14T14:07:55.543Z,60.14
2019-01-14T14:10:31.824Z,61.04
2019-01-14T14:13:06.442Z,60.27
2019-01-14T14:15:58.917Z,61.41
2019-01-14T14:18:33.653Z,61.16
2019-01-14T14:21:09.808Z,61.31
2019-01-14T14:26:10.864Z,60.35
2019-01-14T14:39:36.687Z,63.33
2019-01-14T14:42:10.836Z,63.90
2019-01-14T14:44:44.774Z,63.52
2019-01-14T14:47:19.219Z,62.88
2019-01-14T14:49:56.828Z,63.82
2019-01-14T14:52:34.479Z,63.34
2019-01-14T14:55:10.005Z,63.97
2019-01-14T14:57:46.374Z,63.53
2019-01-14T15:00:25.153Z,63.32
2019-01-14T15:02:59.260Z,62.49
2019-01-14T15:05:33.234Z,62.26
2019-01-14T15:08:12.265Z,60.61
2019-01-14T15:10:46.364Z,60.70
2019-01-14T15:13:20.463Z,60.53
2019-01-14T15:15:54.547Z,60.26
2019-01-14T15:18:28.493Z,60.63
2019-01-14T15:21:05.873Z,60.95
2019-01-14T15:23:39.815Z,61.84
2019-01-14T15:26:15.828Z,61.49
2019-01-14T15:28:49.740Z,62.24
2019-01-14T15:31:26.703Z,61.75
2019-01-14T15:34:01.670Z,62.64
2019-01-14T15:36:40.987Z,61.22
2019-01-14T15:39:16.306Z,61.63
2019-01-14T15:41:52.379Z,61.67
2019-01-14T15:44:25.985Z,62.55
2019-01-14T15:47:01.292Z,63.56
2019-01-14T15:49:38.008Z,63.58
2019-01-14T15:52:12.011Z,64.72
2019-01-14T15:54:50.110Z,64.39
2019-01-14T15:57:23.805Z,63.73
2019-01-14T15:59:57.635Z,62.96
2019-01-14T16:02:31.556Z,62.31
2019-01-14T16:05:07.925Z,61.28
2019-01-14T16:07:42.577Z,59.96
2019-01-14T16:10:24.188Z,59.64
2019-01-14T16:12:58.207Z,58.47
2019-01-14T16:15:32.132Z,59.08
2019-01-14T16:18:06.200Z,58.59
2019-01-14T16:20:42.978Z,59.67
2019-01-14T16:23:16.825Z,60.46
2019-01-14T16:25:51.359Z,60.72
2019-01-14T16:28:25.358Z,60.44
2019-01-14T16:30:59.125Z,60.50
2019-01-14T16:33:36.233Z,61.59
2019-01-14T16:36:10.299Z,59.81
2019-01-14T16:38:44.164Z,59.88
2019-01-14T16:41:21.152Z,60.91
2019-01-14T16:43:56.086Z,60.70
2019-01-14T16:46:30.700Z,60.42
2019-01-14T16:49:04.712Z,61.33
2019-01-14T16:51:38.408Z,60.99
2019-01-14T16:54:14.990Z,62.09
2019-01-14T16:56:49.370Z,62.18
2019-01-14T16:59:24.019Z,62.82
2019-01-14T17:01:57.664Z,64.05
2019-01-14T17:04:31.654Z,65.15
2019-01-14T17:07:05.711Z,65.25
2019-01-14T17:09:39.653Z,66.93
2019-01-14T17:12:13.780Z,67.18
2019-01-14T17:14:47.608Z,66.05
2019-01-14T17:17:22.279Z,66.53
2019-01-14T17:19:56.256Z,66.79
2019-01-14T17:22:29.742Z,66.10
2019-01-14T17:25:04.029Z,66.13
2019-01-14T17:27:37.773Z,67.00
2019-01-14T17:30:25.980Z,67.12
2019-01-14T17:33:03.235Z,66.97
2019-01-14T17:36:29.555Z,67.61
2019-01-14T17:39:54.858Z,67.35
2019-01-14T17:43:20.432Z,67.35
2019-01-14T17:46:46.918Z,68.18
2019-01-14T17:50:12.082Z,68.17
2019-01-14T17:53:39.598Z,69.10
2019-01-14T17:57:05.061Z,70.01
2019-01-14T18:00:29.973Z,69.11
2019-01-14T18:03:55.485Z,69.89
2019-01-14T18:07:22.480Z,69.90
2019-01-14T18:09:55.458Z,71.15
2019-01-14T18:12:28.632Z,72.23
2019-01-14T18:15:01.831Z,72.57
2019-01-14T18:17:35.023Z,72.58
2019-01-14T18:20:12.100Z,73.10
2019-01-14T18:22:45.183Z,72.19
2019-01-14T18:25:18.854Z,71.20
2019-01-14T18:27:51.808Z,71.58
2019-01-14T18:30:24.419Z,71.57
2019-01-14T18:32:57.302Z,71.43
2019-01-14T18:35:30.254Z,71.51
2019-01-14T18:38:03.197Z,71.16
2019-01-14T18:40:36.065Z,71.09
2019-01-14T18:43:08.887Z,68.45
2019-01-14T18:45:41.606Z,67.59
2019-01-14T18:48:14.379Z,67.96
2019-01-14T18:50:46.917Z,68.50
2019-01-14T18:53:19.553Z,68.53
2019-01-14T18:55:58.241Z,67.39
2019-01-14T18:58:30.985Z,66.78
2019-01-14T19:01:03.854Z,66.44
2019-01-14T19:03:36.541Z,66.74
2019-01-14T19:06:09.489Z,65.56
2019-01-14T19:08:42.344Z,65.58
2019-01-14T19:11:15.505Z,65.19
2019-01-14T19:13:48.210Z,64.73
2019-01-14T19:16:20.809Z,64.08
2019-01-14T19:18:54.013Z,63.68
2019-01-14T19:21:26.772Z,62.46
2019-01-14T19:24:09.179Z,61.48
2019-01-14T19:26:42.864Z,62.68
2019-01-14T19:29:15.745Z,59.82
2019-01-14T19:31:48.844Z,59.13
2019-01-14T19:34:21.544Z,58.82
2019-01-14T19:36:54.399Z,57.29
2019-01-14T19:39:27.225Z,57.92
2019-01-14T19:42:00.158Z,57.86
2019-01-14T19:44:32.815Z,55.89
2019-01-14T19:47:05.934Z,55.57
2019-01-14T19:49:39.984Z,55.12
2019-01-14T19:52:14.052Z,54.89
2019-01-14T19:54:47.072Z,55.39
2019-01-14T19:57:19.929Z,55.11
2019-01-14T19:59:53.147Z,54.92
2019-01-14T20:02:25.611Z,54.78
2019-01-14T20:04:58.005Z,55.08
2019-01-14T20:07:30.792Z,54.13
2019-01-14T20:10:03.667Z,54.08
2019-01-14T20:12:37.690Z,54.07
2019-01-14T20:15:19.684Z,52.19
2019-01-14T20:17:53.273Z,52.56
2019-01-14T20:20:26.298Z,52.43
2019-01-14T20:22:59.699Z,52.58
2019-01-14T20:25:32.800Z,52.74
2019-01-14T20:28:06.169Z,52.98
2019-01-14T20:30:39.458Z,52.34
2019-01-14T20:33:13.091Z,51.92
2019-01-14T20:35:47.008Z,52.31
2019-01-14T20:38:20.568Z,52.05
2019-01-14T20:40:54.415Z,51.37
2019-01-14T20:43:27.886Z,51.14
2019-01-14T20:46:01.573Z,51.39
2019-01-14T20:48:35.067Z,50.57
2019-01-14T20:51:09.269Z,51.48
2019-01-14T20:53:44.598Z,51.00
2019-01-14T20:56:18.369Z,50.86
2019-01-14T20:58:51.825Z,50.64
2019-01-14T21:01:49.443Z,51.04
2019-01-14T21:04:23.464Z,50.87
2019-01-14T21:06:57.958Z,51.12
2019-01-14T21:09:31.803Z,51.13
2019-01-14T21:12:05.703Z,51.65
2019-01-14T21:14:43.763Z,52.03
2019-01-14T21:17:18.746Z,51.79
2019-01-14T21:19:53.647Z,52.57
2019-01-14T21:22:27.551Z,53.64
2019-01-14T21:25:00.974Z,52.19
2019-01-14T21:27:50.707Z,52.37
2019-01-14T21:30:26.826Z,51.20
2019-01-14T21:33:00.742Z,50.50
2019-01-14T21:35:34.198Z,51.64
2019-01-14T21:38:08.074Z,52.12
2019-01-14T21:40:41.736Z,53.73
2019-01-14T21:43:15.705Z,54.75
2019-01-14T21:45:49.917Z,54.90
2019-01-14T21:48:25.560Z,54.90
2019-01-14T21:51:02.590Z,56.76
2019-01-14T21:53:34.967Z,55.86
2019-01-14T21:56:08.621Z,55.41
2019-01-14T21:58:46.562Z,56.50
2019-01-14T22:01:20.316Z,55.10
2019-01-14T22:03:54.879Z,55.12
2019-01-14T22:06:28.629Z,55.38
2019-01-14T22:09:02.803Z,53.90
2019-01-14T22:11:40.273Z,52.72
2019-01-14T22:14:14.273Z,51.77
2019-01-14T22:16:49.376Z,49.94
2019-01-14T22:19:24.316Z,50.38
2019-01-14T22:21:58.150Z,50.89
2019-01-14T22:24:31.870Z,50.01
2019-01-14T22:27:05.983Z,50.23
2019-01-14T22:29:52.024Z,50.59
2019-01-14T22:32:26.305Z,50.50
2019-01-14T22:35:01.424Z,50.83
2019-01-14T22:37:37.208Z,50.30
2019-01-14T22:40:12.514Z,51.18
2019-01-14T22:42:46.335Z,51.09
2019-01-14T22:45:21.146Z,51.56
2019-01-14T22:47:54.967Z,51.14
2019-01-14T22:50:29.835Z,52.17
2019-01-14T22:53:03.663Z,51.05
2019-01-14T22:55:57.312Z,50.95
2019-01-14T22:58:31.026Z,50.40
2019-01-14T23:01:10.304Z,50.08
2019-01-14T23:03:43.391Z,51.26
2019-01-14T23:06:17.062Z,50.21
2019-01-14T23:08:51.386Z,50.09
2019-01-14T23:11:27.521Z,49.22
2019-01-14T23:14:03.192Z,49.92
2019-01-14T23:16:39.798Z,48.63
2019-01-14T23:19:14.159Z,48.64
2019-01-14T23:21:49.046Z,50.75
2019-01-14T23:24:23.492Z,48.96
2019-01-14T23:26:58.179Z,49.22
2019-01-14T23:29:36.808Z,52.02
2019-01-14T23:32:11.918Z,50.84
2019-01-14T23:34:47.464Z,51.16
2019-01-14T23:37:22.281Z,51.37
2019-01-14T23:39:56.550Z,50.52
2019-01-14T23:42:30.481Z,51.27
2019-01-14T23:45:30.430Z,52.14
2019-01-14T23:48:05.169Z,53.05
2019-01-14T23:50:40.185Z,53.51
2019-01-14T23:53:15.094Z,53.34
2019-01-14T23:55:49.037Z,54.21
2019-01-14T23:58:43.196Z,54.91
